createdAt,value
2022-10-31T00:00:30.861Z,2.80
2022-10-31T00:02:57.763Z,2.63
2022-10-31T00:05:24.455Z,2.85
2022-10-31T00:07:53.726Z,2.30
2022-10-31T00:10:20.229Z,2.28
2022-10-31T00:12:46.920Z,2.42
2022-10-31T00:15:13.510Z,2.33
2022-10-31T00:17:40.050Z,1.80
2022-10-31T00:20:07.208Z,1.73
2022-10-31T00:22:33.872Z,1.90
2022-10-31T00:25:00.477Z,1.83
2022-10-31T00:27:26.979Z,1.80
2022-10-31T00:29:55.011Z,1.65
2022-10-31T00:32:21.698Z,2.33
2022-10-31T00:34:48.468Z,2.00
2022-10-31T00:37:15.029Z,2.03
2022-10-31T00:39:43.713Z,2.30
2022-10-31T00:42:10.181Z,2.10
2022-10-31T00:44:36.733Z,2.58
2022-10-31T00:47:03.246Z,2.15
2022-10-31T00:49:29.820Z,1.77
2022-10-31T00:51:56.383Z,1.45
2022-10-31T00:54:22.965Z,2.30
2022-10-31T00:56:49.913Z,2.30
2022-10-31T00:59:16.430Z,2.03
2022-10-31T01:01:43.239Z,1.95
2022-10-31T01:04:09.871Z,2.28
2022-10-31T01:06:36.413Z,2.25
2022-10-31T01:09:02.979Z,1.65
2022-10-31T01:11:29.585Z,1.70
2022-10-31T01:13:56.080Z,2.08
2022-10-31T01:16:25.053Z,1.75
2022-10-31T01:18:52.099Z,2.20
2022-10-31T01:21:25.520Z,2.17
2022-10-31T01:23:54.998Z,1.80
2022-10-31T01:26:24.098Z,1.90
2022-10-31T01:28:53.710Z,1.52
2022-10-31T01:31:22.883Z,1.60
2022-10-31T01:33:49.904Z,2.03
2022-10-31T01:36:18.794Z,1.80
2022-10-31T01:38:47.419Z,2.00
2022-10-31T01:41:16.601Z,2.30
2022-10-31T01:43:47.437Z,2.33
2022-10-31T01:46:16.839Z,1.88
2022-10-31T01:48:43.742Z,2.20
2022-10-31T01:51:15.174Z,2.08
2022-10-31T01:53:42.278Z,1.67
2022-10-31T01:56:09.727Z,1.67
2022-10-31T01:58:38.749Z,1.65
2022-10-31T02:01:08.064Z,2.10
2022-10-31T02:03:36.306Z,2.75
2022-10-31T02:06:07.334Z,2.28
2022-10-31T02:08:36.735Z,1.88
2022-10-31T02:11:03.301Z,1.58
2022-10-31T02:13:30.513Z,2.10
2022-10-31T02:15:59.591Z,2.30
2022-10-31T02:18:30.260Z,1.75
2022-10-31T02:21:23.365Z,1.80
2022-10-31T02:24:17.840Z,1.77
2022-10-31T02:26:54.885Z,2.22
2022-10-31T02:29:54.188Z,2.22
2022-10-31T02:32:54.776Z,2.72
2022-10-31T02:35:40.978Z,2.10
2022-10-31T02:38:24.133Z,1.98
2022-10-31T02:41:09.063Z,2.67
2022-10-31T02:44:06.650Z,2.03
2022-10-31T02:46:40.818Z,2.13
2022-10-31T02:49:33.679Z,1.42
2022-10-31T02:52:00.198Z,2.47
2022-10-31T02:54:28.988Z,1.95
2022-10-31T02:57:05.381Z,1.60
2022-10-31T02:59:36.286Z,2.03
2022-10-31T03:02:21.924Z,1.65
2022-10-31T03:05:21.132Z,2.05
2022-10-31T03:08:00.673Z,2.42
2022-10-31T03:10:56.802Z,1.70
2022-10-31T03:13:46.280Z,1.42
2022-10-31T03:16:25.890Z,3.00
2022-10-31T03:19:06.128Z,2.25
2022-10-31T03:21:46.359Z,1.65
2022-10-31T03:24:14.397Z,1.95
2022-10-31T03:26:49.480Z,1.95
2022-10-31T03:29:20.370Z,1.98
2022-10-31T03:31:52.289Z,1.20
2022-10-31T03:34:20.646Z,1.65
2022-10-31T03:36:51.535Z,1.30
2022-10-31T03:39:21.663Z,2.22
2022-10-31T03:41:55.990Z,1.65
2022-10-31T03:44:24.734Z,1.58
2022-10-31T03:46:58.982Z,2.13
2022-10-31T03:49:25.830Z,2.17
2022-10-31T03:52:03.637Z,1.50
2022-10-31T03:54:42.789Z,2.08
2022-10-31T03:57:35.855Z,1.83
2022-10-31T04:00:11.715Z,1.95
2022-10-31T04:02:54.990Z,2.10
2022-10-31T04:05:22.423Z,2.08
2022-10-31T04:07:54.486Z,1.52
2022-10-31T04:10:23.745Z,1.48
2022-10-31T04:12:59.065Z,1.60
2022-10-31T04:15:33.866Z,1.80
2022-10-31T04:18:02.593Z,1.50
2022-10-31T04:20:38.109Z,2.70
2022-10-31T04:23:14.662Z,1.27
2022-10-31T04:25:41.535Z,1.50
2022-10-31T04:28:08.363Z,1.45
2022-10-31T04:30:38.041Z,2.10
2022-10-31T04:33:04.621Z,1.52
2022-10-31T04:35:31.210Z,1.65
2022-10-31T04:37:57.743Z,2.38
2022-10-31T04:40:24.323Z,1.52
2022-10-31T04:43:15.314Z,1.98
2022-10-31T04:45:44.010Z,1.67
2022-10-31T04:48:11.586Z,1.87
2022-10-31T04:50:40.193Z,1.35
2022-10-31T04:53:07.463Z,2.28
2022-10-31T04:55:41.848Z,2.20
2022-10-31T04:58:18.888Z,1.60
2022-10-31T05:00:46.291Z,1.97
2022-10-31T05:05:40.848Z,1.98
2022-10-31T05:08:07.393Z,2.20
2022-10-31T05:10:33.931Z,1.88
2022-10-31T05:13:03.919Z,1.83
2022-10-31T05:15:50.496Z,2.83
2022-10-31T05:18:16.974Z,1.63
2022-10-31T05:20:43.617Z,1.90
2022-10-31T05:23:17.690Z,1.50
2022-10-31T05:25:44.341Z,1.48
2022-10-31T05:28:12.321Z,1.58
2022-10-31T05:30:39.385Z,2.55
2022-10-31T05:33:10.346Z,2.08
2022-10-31T05:36:08.780Z,1.67
2022-10-31T05:38:41.534Z,1.40
2022-10-31T05:41:16.633Z,2.28
2022-10-31T05:43:46.719Z,1.58
2022-10-31T05:46:15.978Z,1.48
2022-10-31T05:49:02.853Z,1.60
2022-10-31T05:51:48.317Z,2.45
2022-10-31T05:54:16.024Z,2.72
2022-10-31T05:56:45.109Z,1.90
2022-10-31T05:59:12.168Z,2.63
2022-10-31T06:01:39.714Z,1.52
2022-10-31T06:04:13.507Z,1.55
2022-10-31T06:06:40.183Z,2.08
2022-10-31T06:09:07.273Z,1.70
2022-10-31T06:11:36.289Z,1.48
2022-10-31T06:14:03.416Z,1.60
2022-10-31T06:16:46.125Z,2.83
2022-10-31T06:19:32.611Z,1.67
2022-10-31T06:21:59.645Z,1.50
2022-10-31T06:24:26.131Z,2.25
2022-10-31T06:26:55.249Z,1.50
2022-10-31T06:29:22.214Z,2.03
2022-10-31T06:32:00.095Z,1.50
2022-10-31T06:34:27.974Z,1.85
2022-10-31T06:36:54.760Z,1.30
2022-10-31T06:39:24.753Z,1.98
2022-10-31T06:41:51.328Z,1.77
2022-10-31T06:44:20.834Z,2.47
2022-10-31T06:46:49.961Z,2.17
2022-10-31T06:49:39.024Z,1.83
2022-10-31T06:52:12.560Z,2.17
2022-10-31T06:54:39.131Z,1.52
2022-10-31T06:57:05.802Z,1.75
2022-10-31T06:59:32.378Z,2.60
2022-10-31T07:02:16.395Z,2.00
2022-10-31T07:04:43.893Z,1.52
2022-10-31T07:07:13.790Z,1.85
2022-10-31T07:09:40.478Z,2.08
2022-10-31T07:12:09.073Z,1.90
2022-10-31T07:14:38.850Z,1.80
2022-10-31T07:17:05.965Z,2.40
2022-10-31T07:19:36.821Z,1.70
2022-10-31T07:22:03.552Z,1.58
2022-10-31T07:24:30.709Z,2.05
2022-10-31T07:27:23.073Z,2.03
2022-10-31T07:29:49.665Z,2.15
2022-10-31T07:32:17.018Z,1.93
2022-10-31T07:34:50.875Z,1.90
2022-10-31T07:37:20.982Z,2.40
2022-10-31T07:39:48.424Z,1.70
2022-10-31T07:42:14.917Z,2.20
2022-10-31T07:44:44.644Z,2.05
2022-10-31T07:47:29.634Z,2.20
2022-10-31T07:50:16.547Z,2.10
2022-10-31T07:53:02.560Z,1.60
2022-10-31T07:55:55.397Z,2.38
2022-10-31T07:58:28.484Z,1.73
2022-10-31T08:00:55.158Z,2.17
2022-10-31T08:03:31.772Z,2.33
2022-10-31T08:06:10.446Z,1.55
2022-10-31T08:09:15.210Z,2.30
2022-10-31T08:11:43.995Z,2.28
2022-10-31T08:14:10.578Z,3.45
2022-10-31T08:16:37.213Z,2.75
2022-10-31T08:19:06.219Z,2.97
2022-10-31T08:21:37.760Z,3.30
2022-10-31T08:24:05.773Z,2.08
2022-10-31T08:26:33.141Z,3.30
2022-10-31T08:28:59.875Z,2.97
2022-10-31T08:31:33.479Z,2.75
2022-10-31T08:34:20.041Z,3.00
2022-10-31T08:37:05.098Z,3.17
2022-10-31T08:39:40.075Z,2.40
2022-10-31T08:42:06.776Z,1.90
2022-10-31T08:44:33.242Z,2.20
2022-10-31T08:46:59.959Z,1.83
2022-10-31T08:49:26.512Z,2.97
2022-10-31T08:51:53.042Z,2.35
2022-10-31T08:56:56.777Z,2.42
2022-10-31T08:59:55.362Z,2.33
2022-10-31T09:02:44.852Z,1.67
2022-10-31T09:05:13.572Z,2.08
2022-10-31T09:07:40.252Z,2.17
2022-10-31T09:10:09.815Z,1.60
2022-10-31T09:12:37.968Z,2.00
2022-10-31T09:15:42.141Z,2.33
2022-10-31T09:18:20.553Z,2.00
2022-10-31T09:21:00.050Z,2.50
2022-10-31T09:23:28.005Z,3.08
2022-10-31T09:25:55.333Z,2.10
2022-10-31T09:28:34.337Z,2.10
2022-10-31T09:31:06.412Z,1.98
2022-10-31T09:33:54.172Z,1.92
2022-10-31T09:36:40.778Z,2.45
2022-10-31T09:39:11.905Z,2.05
2022-10-31T09:41:56.250Z,2.25
2022-10-31T09:44:43.087Z,2.47
2022-10-31T09:47:26.481Z,2.40
2022-10-31T09:51:00.564Z,2.10
2022-10-31T09:53:51.263Z,2.63
2022-10-31T09:56:23.528Z,2.40
2022-10-31T09:58:59.772Z,2.20
2022-10-31T10:01:54.050Z,2.03
2022-10-31T10:04:48.784Z,2.50
2022-10-31T10:07:33.488Z,3.13
2022-10-31T10:10:57.245Z,2.38
2022-10-31T10:14:11.937Z,2.28
2022-10-31T10:17:09.133Z,3.00
2022-10-31T10:20:00.470Z,2.63
2022-10-31T10:22:40.624Z,2.30
2022-10-31T10:25:34.433Z,1.90
2022-10-31T10:28:18.201Z,2.17
2022-10-31T10:30:54.392Z,2.03
2022-10-31T10:33:25.472Z,2.63
2022-10-31T10:35:57.334Z,2.10
2022-10-31T10:38:32.877Z,2.25
2022-10-31T10:41:01.910Z,2.83
2022-10-31T10:43:36.105Z,2.05
2022-10-31T10:46:12.041Z,2.72
2022-10-31T10:48:58.890Z,2.13
2022-10-31T10:52:07.466Z,3.05
2022-10-31T10:55:00.849Z,2.88
2022-10-31T10:57:33.418Z,2.40
2022-10-31T11:00:02.170Z,2.00
2022-10-31T11:02:32.989Z,2.00
2022-10-31T11:05:02.196Z,2.30
2022-10-31T11:07:41.658Z,3.30
2022-10-31T11:10:14.420Z,3.03
2022-10-31T11:12:41.499Z,2.78
2022-10-31T11:15:19.842Z,2.38
2022-10-31T11:17:53.814Z,2.13
2022-10-31T11:20:20.490Z,2.00
2022-10-31T11:22:48.927Z,3.85
2022-10-31T11:25:26.356Z,2.25
2022-10-31T11:28:09.404Z,2.30
2022-10-31T11:30:48.350Z,2.15
2022-10-31T11:33:20.786Z,2.58
2022-10-31T11:35:50.947Z,3.65
2022-10-31T11:38:25.310Z,2.20
2022-10-31T11:41:03.983Z,3.50
2022-10-31T11:43:30.707Z,2.42
2022-10-31T11:45:57.636Z,2.42
2022-10-31T11:48:25.977Z,2.95
2022-10-31T11:50:57.746Z,3.15
2022-10-31T11:53:27.110Z,2.80
2022-10-31T11:56:22.856Z,3.38
2022-10-31T11:58:57.365Z,2.90
2022-10-31T12:01:29.612Z,2.85
2022-10-31T12:04:07.403Z,3.28
2022-10-31T12:06:39.210Z,3.75
2022-10-31T12:09:23.995Z,3.35
2022-10-31T12:12:08.817Z,2.38
2022-10-31T12:15:03.560Z,3.25
2022-10-31T12:17:53.246Z,3.75
2022-10-31T12:20:58.255Z,3.85
2022-10-31T12:23:45.975Z,2.20
2022-10-31T12:26:27.283Z,3.45
2022-10-31T12:28:56.865Z,2.55
2022-10-31T12:31:29.462Z,2.25
2022-10-31T12:34:05.131Z,3.03
2022-10-31T12:36:57.677Z,3.28
2022-10-31T12:39:42.980Z,3.55
2022-10-31T12:42:34.352Z,2.45
2022-10-31T12:45:25.650Z,2.85
2022-10-31T12:48:22.960Z,2.58
2022-10-31T12:51:16.283Z,2.08
2022-10-31T12:53:56.887Z,1.95
2022-10-31T12:56:46.626Z,2.97
2022-10-31T12:59:30.939Z,2.47
2022-10-31T13:02:04.135Z,2.97
2022-10-31T13:05:11.322Z,2.60
2022-10-31T13:07:43.557Z,2.20
2022-10-31T13:10:43.568Z,2.20
2022-10-31T13:13:31.989Z,2.42
2022-10-31T13:16:03.533Z,2.30
2022-10-31T13:18:41.399Z,2.40
2022-10-31T13:23:51.306Z,2.70
2022-10-31T13:26:24.780Z,3.15
2022-10-31T13:29:03.213Z,2.67
2022-10-31T13:31:29.827Z,2.40
2022-10-31T13:34:04.620Z,2.35
2022-10-31T13:36:37.180Z,2.25
2022-10-31T13:39:36.121Z,2.33
2022-10-31T13:42:05.719Z,2.97
2022-10-31T13:44:38.555Z,2.90
2022-10-31T13:47:22.789Z,2.85
2022-10-31T13:49:49.420Z,2.10
2022-10-31T13:52:23.922Z,2.70
2022-10-31T13:54:52.443Z,2.42
2022-10-31T13:57:36.027Z,2.10
2022-10-31T14:00:22.867Z,2.03
2022-10-31T14:02:52.312Z,2.97
2022-10-31T14:05:36.719Z,2.95
2022-10-31T14:08:06.861Z,1.90
2022-10-31T14:10:37.742Z,3.05
2022-10-31T14:13:06.221Z,2.63
2022-10-31T14:15:33.166Z,2.70
2022-10-31T14:18:06.827Z,2.30
2022-10-31T14:20:41.546Z,2.85
2022-10-31T14:23:30.360Z,3.72
2022-10-31T14:26:18.641Z,3.45
2022-10-31T14:28:46.416Z,3.42
2022-10-31T14:31:59.483Z,3.05
2022-10-31T14:34:36.447Z,2.10
2022-10-31T14:37:11.653Z,2.30
2022-10-31T14:40:01.005Z,2.42
2022-10-31T14:43:05.256Z,3.00
2022-10-31T14:45:56.636Z,1.95
2022-10-31T14:48:51.074Z,2.70
2022-10-31T14:51:23.730Z,2.58
2022-10-31T14:53:55.898Z,2.78
2022-10-31T14:56:27.236Z,3.13
2022-10-31T14:58:57.823Z,2.53
2022-10-31T15:01:30.796Z,3.20
2022-10-31T15:04:31.030Z,3.03
2022-10-31T15:07:12.890Z,2.47
2022-10-31T15:09:40.921Z,2.35
2022-10-31T15:14:53.351Z,3.15
2022-10-31T15:17:21.252Z,2.58
2022-10-31T15:19:48.258Z,2.58
2022-10-31T15:22:17.794Z,2.72
2022-10-31T15:24:45.934Z,2.20
2022-10-31T15:29:55.038Z,3.20
2022-10-31T15:32:27.054Z,3.00
2022-10-31T15:34:55.381Z,2.45
2022-10-31T15:37:24.633Z,2.90
2022-10-31T15:39:52.047Z,3.13
2022-10-31T15:42:28.090Z,2.97
2022-10-31T15:45:17.575Z,3.08
2022-10-31T15:47:55.296Z,2.63
2022-10-31T15:50:27.172Z,2.42
2022-10-31T15:52:53.877Z,3.15
2022-10-31T15:55:33.108Z,2.15
2022-10-31T15:58:10.598Z,3.15
2022-10-31T16:00:38.892Z,2.65
2022-10-31T16:03:14.564Z,2.67
2022-10-31T16:05:49.878Z,3.03
2022-10-31T16:08:31.263Z,2.92
2022-10-31T16:11:00.788Z,2.53
2022-10-31T16:13:33.224Z,2.70
2022-10-31T16:19:06.579Z,2.55
2022-10-31T16:21:36.159Z,2.00
2022-10-31T16:24:06.501Z,6.43
2022-10-31T16:26:33.913Z,7.18
2022-10-31T16:29:05.577Z,5.53
2022-10-31T16:31:39.180Z,4.78
2022-10-31T16:34:26.241Z,3.58
2022-10-31T16:39:20.114Z,2.47
2022-10-31T16:41:49.116Z,3.60
2022-10-31T16:44:19.616Z,4.63
2022-10-31T16:46:46.398Z,9.27
2022-10-31T16:49:13.474Z,8.60
2022-10-31T16:51:40.102Z,7.03
2022-10-31T16:54:06.582Z,4.90
2022-10-31T16:56:37.100Z,3.97
2022-10-31T16:59:09.819Z,4.95
2022-10-31T17:01:40.822Z,5.57
2022-10-31T17:04:11.060Z,4.55
2022-10-31T17:06:37.641Z,3.97
2022-10-31T17:09:04.232Z,3.63
2022-10-31T17:11:30.810Z,3.42
2022-10-31T17:13:57.329Z,3.08
2022-10-31T17:16:23.837Z,3.35
2022-10-31T17:18:50.528Z,2.95
2022-10-31T17:21:23.029Z,3.33
2022-10-31T17:23:51.018Z,3.67
2022-10-31T17:26:18.225Z,4.93
2022-10-31T17:28:44.694Z,4.28
2022-10-31T17:31:23.179Z,3.88
2022-10-31T17:33:50.755Z,2.95
2022-10-31T17:36:17.521Z,3.10
2022-10-31T17:38:44.436Z,2.03
2022-10-31T17:41:11.717Z,2.45
2022-10-31T17:43:38.655Z,2.42
2022-10-31T17:46:05.933Z,2.47
2022-10-31T17:48:34.916Z,3.17
2022-10-31T17:51:03.214Z,3.47
2022-10-31T17:53:31.253Z,2.20
2022-10-31T17:56:05.006Z,2.78
2022-10-31T17:58:31.605Z,3.58
2022-10-31T18:00:59.215Z,2.92
2022-10-31T18:03:26.861Z,2.83
2022-10-31T18:05:58.184Z,3.25
2022-10-31T18:08:29.060Z,2.88
2022-10-31T18:10:56.523Z,3.08
2022-10-31T18:13:23.109Z,2.20
2022-10-31T18:15:49.601Z,2.97
2022-10-31T18:18:16.537Z,3.00
2022-10-31T18:20:43.290Z,3.35
2022-10-31T18:23:10.898Z,2.47
2022-10-31T18:25:37.510Z,2.63
2022-10-31T18:28:05.313Z,2.95
2022-10-31T18:30:32.445Z,3.33
2022-10-31T18:32:58.999Z,4.28
2022-10-31T18:35:25.599Z,2.88
2022-10-31T18:37:52.334Z,3.03
2022-10-31T18:40:18.899Z,3.22
2022-10-31T18:42:45.438Z,3.13
2022-10-31T18:45:31.176Z,2.35
2022-10-31T18:47:58.933Z,3.50
2022-10-31T18:50:25.825Z,2.67
2022-10-31T18:52:52.374Z,2.97
2022-10-31T18:55:18.907Z,3.38
2022-10-31T18:57:45.488Z,3.08
2022-10-31T19:00:12.677Z,3.80
2022-10-31T19:02:39.221Z,2.58
2022-10-31T19:05:05.978Z,3.30
2022-10-31T19:07:32.590Z,3.00
2022-10-31T19:09:59.071Z,2.78
2022-10-31T19:12:25.601Z,2.97
2022-10-31T19:14:52.088Z,3.22
2022-10-31T19:17:18.631Z,2.42
2022-10-31T19:19:45.105Z,3.38
2022-10-31T19:22:11.620Z,2.58
2022-10-31T19:24:38.178Z,3.67
2022-10-31T19:27:04.624Z,3.47
2022-10-31T19:29:31.094Z,3.53
2022-10-31T19:31:57.667Z,3.42
2022-10-31T19:34:24.154Z,3.40
2022-10-31T19:36:50.650Z,3.25
2022-10-31T19:39:17.183Z,3.85
2022-10-31T19:41:43.736Z,4.55
2022-10-31T19:44:13.269Z,3.53
2022-10-31T19:46:53.557Z,3.13
2022-10-31T19:51:46.908Z,3.47
2022-10-31T19:54:13.510Z,3.17
2022-10-31T19:56:40.143Z,3.58
2022-10-31T19:59:06.647Z,3.90
2022-10-31T20:01:33.197Z,3.60
2022-10-31T20:03:59.727Z,3.58
2022-10-31T20:06:44.387Z,2.42
2022-10-31T20:09:13.660Z,2.80
2022-10-31T20:11:41.920Z,2.47
2022-10-31T20:16:35.375Z,2.85
2022-10-31T20:19:05.064Z,2.78
2022-10-31T20:21:35.559Z,2.87
2022-10-31T20:24:04.876Z,2.60
2022-10-31T20:26:33.187Z,3.25
2022-10-31T20:29:01.546Z,3.00
2022-10-31T20:31:30.732Z,2.03
2022-10-31T20:33:57.510Z,2.42
2022-10-31T20:36:24.033Z,2.38
2022-10-31T20:38:52.334Z,3.17
2022-10-31T20:41:19.161Z,2.30
2022-10-31T20:43:46.379Z,3.15
2022-10-31T20:46:15.859Z,3.40
2022-10-31T20:48:42.743Z,2.85
2022-10-31T20:53:42.785Z,2.28
2022-10-31T20:56:15.200Z,2.50
2022-10-31T20:58:43.266Z,1.75
2022-10-31T21:01:15.647Z,2.80
2022-10-31T21:03:42.968Z,3.03
2022-10-31T21:06:10.135Z,2.10
2022-10-31T21:08:36.938Z,2.40
2022-10-31T21:11:09.230Z,2.42
2022-10-31T21:13:40.621Z,2.78
2022-10-31T21:16:18.286Z,2.35
2022-10-31T21:18:46.052Z,2.40
2022-10-31T21:21:30.678Z,1.98
2022-10-31T21:24:01.586Z,2.20
2022-10-31T21:26:30.965Z,3.13
2022-10-31T21:28:58.876Z,2.20
2022-10-31T21:31:26.548Z,2.10
2022-10-31T21:33:53.120Z,3.22
2022-10-31T21:36:20.153Z,2.95
2022-10-31T21:38:50.492Z,2.65
2022-10-31T21:41:17.327Z,3.33
2022-10-31T21:43:45.625Z,2.63
2022-10-31T21:46:14.769Z,2.85
2022-10-31T21:48:42.259Z,2.60
2022-10-31T21:51:17.877Z,2.90
2022-10-31T21:53:44.673Z,2.65
2022-10-31T21:56:11.281Z,2.97
2022-10-31T21:58:38.680Z,2.63
2022-10-31T22:01:05.695Z,3.38
2022-10-31T22:03:37.069Z,2.33
2022-10-31T22:06:04.654Z,2.15
2022-10-31T22:08:31.212Z,2.08
2022-10-31T22:11:02.338Z,2.95
2022-10-31T22:13:33.117Z,2.75
2022-10-31T22:16:04.075Z,3.03
2022-10-31T22:18:30.812Z,2.20
2022-10-31T22:21:05.882Z,2.38
2022-10-31T22:23:32.870Z,2.20
2022-10-31T22:26:04.053Z,3.00
2022-10-31T22:28:31.573Z,2.70
2022-10-31T22:30:58.538Z,3.13
2022-10-31T22:33:25.646Z,2.85
2022-10-31T22:35:52.297Z,2.60
2022-10-31T22:38:18.735Z,2.25
2022-10-31T22:40:45.283Z,2.63
2022-10-31T22:43:11.847Z,2.90
2022-10-31T22:45:38.376Z,2.30
2022-10-31T22:48:05.268Z,2.95
2022-10-31T22:50:32.621Z,2.22
2022-10-31T22:52:59.059Z,2.20
2022-10-31T22:55:25.602Z,2.47
2022-10-31T22:57:52.074Z,2.17
2022-10-31T23:00:18.852Z,2.80
2022-10-31T23:02:45.394Z,2.83
2022-10-31T23:05:11.901Z,2.47
2022-10-31T23:07:40.171Z,2.65
2022-10-31T23:10:06.984Z,2.17
2022-10-31T23:12:33.584Z,3.22
2022-10-31T23:15:00.170Z,2.63
2022-10-31T23:17:26.715Z,2.75
2022-10-31T23:19:53.312Z,3.17
2022-10-31T23:22:19.882Z,2.90
2022-10-31T23:24:47.280Z,3.10
2022-10-31T23:27:18.369Z,2.83
2022-10-31T23:29:51.121Z,2.47
2022-10-31T23:32:27.033Z,2.90
2022-10-31T23:34:58.865Z,2.92
2022-10-31T23:37:28.429Z,3.40
2022-10-31T23:39:55.086Z,3.10
2022-10-31T23:42:22.580Z,2.88
2022-10-31T23:44:49.636Z,2.33
2022-10-31T23:47:17.065Z,2.58
2022-10-31T23:49:43.886Z,2.97
2022-10-31T23:52:11.101Z,3.10
2022-10-31T23:54:37.873Z,2.60
2022-10-31T23:57:04.806Z,3.00
2022-10-31T23:59:31.873Z,2.60
